sensor_id;sensor_type;location;lat;lon;timestamp;pressure;altitude;pressure_sealevel;temperature;humidity
13420;BME280;6781;58.440;15.470;2023-09-19T00:02:04;102774.47;;;16.17;100.00
13420;BME280;6781;58.440;15.470;2023-09-19T00:04:35;102786.84;;;16.27;100.00
13420;BME280;6781;58.440;15.470;2023-09-19T00:07:05;102736.22;;;15.89;100.00
13420;BME280;6781;58.440;15.470;2023-09-19T00:09:32;102747.53;;;15.89;100.00
13420;BME280;6781;58.440;15.470;2023-09-19T00:12:03;102772.38;;;16.09;100.00
13420;BME280;6781;58.440;15.470;2023-09-19T00:14:31;102834.97;;;16.52;100.00
13420;BME280;6781;58.440;15.470;2023-09-19T00:16:59;102786.00;;;16.14;100.00
13420;BME280;6781;58.440;15.470;2023-09-19T00:19:31;102805.41;;;16.37;100.00
13420;BME280;6781;58.440;15.470;2023-09-19T00:22:00;102773.50;;;16.05;100.00
13420;BME280;6781;58.440;15.470;2023-09-19T00:24:28;102765.25;;;16.11;100.00
13420;BME280;6781;58.440;15.470;2023-09-19T00:26:55;102811.38;;;16.39;100.00
13420;BME280;6781;58.440;15.470;2023-09-19T00:29:25;102699.84;;;15.72;100.00
13420;BME280;6781;58.440;15.470;2023-09-19T00:31:55;102775.63;;;16.25;100.00
13420;BME280;6781;58.440;15.470;2023-09-19T00:34:22;102849.13;;;16.62;100.00
13420;BME280;6781;58.440;15.470;2023-09-19T00:36:50;102775.53;;;16.27;100.00
13420;BME280;6781;58.440;15.470;2023-09-19T00:39:21;102717.88;;;15.89;100.00
13420;BME280;6781;58.440;15.470;2023-09-19T00:41:51;102731.31;;;15.97;100.00
13420;BME280;6781;58.440;15.470;2023-09-19T00:44:20;102732.97;;;15.98;100.00
13420;BME280;6781;58.440;15.470;2023-09-19T00:46:48;102744.09;;;16.14;100.00
13420;BME280;6781;58.440;15.470;2023-09-19T00:49:16;102823.84;;;16.61;100.00
13420;BME280;6781;58.440;15.470;2023-09-19T00:51:46;102737.38;;;16.10;100.00
13420;BME280;6781;58.440;15.470;2023-09-19T00:54:13;102706.47;;;15.90;100.00
13420;BME280;6781;58.440;15.470;2023-09-19T00:56:45;102768.59;;;16.13;100.00
13420;BME280;6781;58.440;15.470;2023-09-19T00:59:14;102835.31;;;16.73;100.00
13420;BME280;6781;58.440;15.470;2023-09-19T01:01:42;102834.47;;;16.72;100.00
13420;BME280;6781;58.440;15.470;2023-09-19T01:04:11;102829.66;;;16.66;100.00
13420;BME280;6781;58.440;15.470;2023-09-19T01:06:39;102799.22;;;16.51;100.00
13420;BME280;6781;58.440;15.470;2023-09-19T01:09:07;102805.28;;;16.39;100.00
13420;BME280;6781;58.440;15.470;2023-09-19T01:11:38;102832.38;;;16.65;100.00
13420;BME280;6781;58.440;15.470;2023-09-19T01:14:19;102833.75;;;16.70;100.00
13420;BME280;6781;58.440;15.470;2023-09-19T01:16:53;102708.69;;;15.96;100.00
13420;BME280;6781;58.440;15.470;2023-09-19T01:19:53;102804.88;;;16.45;100.00
13420;BME280;6781;58.440;15.470;2023-09-19T01:22:37;102830.03;;;16.60;100.00
13420;BME280;6781;58.440;15.470;2023-09-19T01:28:26;102797.75;;;16.47;100.00
13420;BME280;6781;58.440;15.470;2023-09-19T01:30:58;102762.13;;;16.32;100.00
13420;BME280;6781;58.440;15.470;2023-09-19T01:33:28;102752.69;;;16.29;100.00
13420;BME280;6781;58.440;15.470;2023-09-19T01:36:16;102706.59;;;16.01;100.00
13420;BME280;6781;58.440;15.470;2023-09-19T01:38:43;102722.09;;;16.17;100.00
13420;BME280;6781;58.440;15.470;2023-09-19T01:41:14;102760.66;;;16.27;100.00
13420;BME280;6781;58.440;15.470;2023-09-19T01:43:46;102641.22;;;15.61;100.00
13420;BME280;6781;58.440;15.470;2023-09-19T01:46:21;102580.09;;;15.24;100.00
13420;BME280;6781;58.440;15.470;2023-09-19T01:48:59;102688.38;;;15.87;100.00
13420;BME280;6781;58.440;15.470;2023-09-19T01:51:34;102652.34;;;15.65;100.00
13420;BME280;6781;58.440;15.470;2023-09-19T01:54:09;102694.25;;;16.03;100.00
13420;BME280;6781;58.440;15.470;2023-09-19T01:56:42;102689.31;;;16.11;100.00
13420;BME280;6781;58.440;15.470;2023-09-19T01:59:20;102614.53;;;15.56;100.00
13420;BME280;6781;58.440;15.470;2023-09-19T02:04:34;102667.94;;;15.92;100.00
13420;BME280;6781;58.440;15.470;2023-09-19T02:07:02;102680.72;;;16.09;100.00
13420;BME280;6781;58.440;15.470;2023-09-19T02:09:31;102672.97;;;15.95;100.00
13420;BME280;6781;58.440;15.470;2023-09-19T02:12:01;102679.78;;;16.10;100.00
13420;BME280;6781;58.440;15.470;2023-09-19T02:14:29;102644.81;;;15.86;100.00
13420;BME280;6781;58.440;15.470;2023-09-19T02:16:57;102562.53;;;15.39;100.00
13420;BME280;6781;58.440;15.470;2023-09-19T02:19:27;102678.94;;;16.22;100.00
13420;BME280;6781;58.440;15.470;2023-09-19T02:21:56;102578.44;;;15.61;100.00
13420;BME280;6781;58.440;15.470;2023-09-19T02:24:37;102505.31;;;15.22;100.00
13420;BME280;6781;58.440;15.470;2023-09-19T02:27:13;102669.63;;;16.18;100.00
13420;BME280;6781;58.440;15.470;2023-09-19T02:29:41;102690.13;;;16.37;100.00
13420;BME280;6781;58.440;15.470;2023-09-19T02:32:08;102544.22;;;15.39;100.00
13420;BME280;6781;58.440;15.470;2023-09-19T02:34:35;102648.38;;;16.10;100.00
13420;BME280;6781;58.440;15.470;2023-09-19T02:37:06;102681.22;;;16.40;100.00
13420;BME280;6781;58.440;15.470;2023-09-19T02:39:34;102686.25;;;16.43;100.00
13420;BME280;6781;58.440;15.470;2023-09-19T02:42:01;102583.56;;;15.76;100.00
13420;BME280;6781;58.440;15.470;2023-09-19T02:44:29;102673.06;;;16.32;100.00
13420;BME280;6781;58.440;15.470;2023-09-19T02:46:56;102637.69;;;16.13;100.00
13420;BME280;6781;58.440;15.470;2023-09-19T02:49:24;102577.28;;;15.78;100.00
13420;BME280;6781;58.440;15.470;2023-09-19T02:51:51;102575.72;;;15.76;100.00
13420;BME280;6781;58.440;15.470;2023-09-19T02:54:19;102680.28;;;16.41;100.00
13420;BME280;6781;58.440;15.470;2023-09-19T02:56:47;102625.84;;;16.08;100.00
13420;BME280;6781;58.440;15.470;2023-09-19T02:59:14;102623.66;;;16.14;100.00
13420;BME280;6781;58.440;15.470;2023-09-19T03:01:43;102660.50;;;16.37;100.00
13420;BME280;6781;58.440;15.470;2023-09-19T03:04:12;102667.50;;;16.36;100.00
13420;BME280;6781;58.440;15.470;2023-09-19T03:06:39;102572.16;;;15.89;100.00
13420;BME280;6781;58.440;15.470;2023-09-19T03:09:06;102598.31;;;16.02;100.00
13420;BME280;6781;58.440;15.470;2023-09-19T03:11:40;102651.91;;;16.35;100.00
13420;BME280;6781;58.440;15.470;2023-09-19T03:14:07;102573.00;;;15.90;100.00
13420;BME280;6781;58.440;15.470;2023-09-19T03:16:35;102532.59;;;15.69;100.00
13420;BME280;6781;58.440;15.470;2023-09-19T03:19:03;102617.03;;;16.21;100.00
13420;BME280;6781;58.440;15.470;2023-09-19T03:21:30;102626.53;;;16.35;100.00
13420;BME280;6781;58.440;15.470;2023-09-19T03:23:57;102611.88;;;16.33;100.00
13420;BME280;6781;58.440;15.470;2023-09-19T03:26:24;102466.72;;;15.38;100.00
13420;BME280;6781;58.440;15.470;2023-09-19T03:28:54;102593.38;;;16.10;100.00
13420;BME280;6781;58.440;15.470;2023-09-19T03:31:21;102498.59;;;15.56;100.00
13420;BME280;6781;58.440;15.470;2023-09-19T03:33:47;102499.66;;;15.53;100.00
13420;BME280;6781;58.440;15.470;2023-09-19T03:36:14;102560.63;;;15.92;100.00
13420;BME280;6781;58.440;15.470;2023-09-19T03:38:41;102599.53;;;16.22;100.00
13420;BME280;6781;58.440;15.470;2023-09-19T03:41:08;102498.53;;;15.57;100.00
13420;BME280;6781;58.440;15.470;2023-09-19T03:43:39;102428.03;;;15.18;100.00
13420;BME280;6781;58.440;15.470;2023-09-19T03:46:08;102414.44;;;15.13;100.00
13420;BME280;6781;58.440;15.470;2023-09-19T03:48:36;102594.50;;;16.32;100.00
13420;BME280;6781;58.440;15.470;2023-09-19T03:51:03;102485.31;;;15.72;100.00
13420;BME280;6781;58.440;15.470;2023-09-19T03:53:30;102560.81;;;16.14;100.00
13420;BME280;6781;58.440;15.470;2023-09-19T03:55:57;102517.50;;;15.85;100.00
13420;BME280;6781;58.440;15.470;2023-09-19T03:58:25;102517.31;;;15.88;100.00
13420;BME280;6781;58.440;15.470;2023-09-19T04:00:57;102555.50;;;16.03;100.00
13420;BME280;6781;58.440;15.470;2023-09-19T04:03:26;102574.41;;;16.19;100.00
13420;BME280;6781;58.440;15.470;2023-09-19T04:06:00;102563.09;;;16.19;100.00
13420;BME280;6781;58.440;15.470;2023-09-19T04:08:28;102554.09;;;16.10;100.00
13420;BME280;6781;58.440;15.470;2023-09-19T04:10:55;102549.09;;;16.07;100.00
13420;BME280;6781;58.440;15.470;2023-09-19T04:13:22;102444.22;;;15.48;100.00
13420;BME280;6781;58.440;15.470;2023-09-19T04:15:49;102553.91;;;16.13;100.00
13420;BME280;6781;58.440;15.470;2023-09-19T04:18:16;102498.97;;;15.88;100.00
13420;BME280;6781;58.440;15.470;2023-09-19T04:20:49;102493.56;;;15.78;100.00
13420;BME280;6781;58.440;15.470;2023-09-19T04:23:16;102375.44;;;15.10;100.00
13420;BME280;6781;58.440;15.470;2023-09-19T04:25:45;102432.19;;;15.58;100.00
13420;BME280;6781;58.440;15.470;2023-09-19T04:28:12;102539.41;;;16.20;100.00
13420;BME280;6781;58.440;15.470;2023-09-19T04:30:39;102483.50;;;15.85;100.00
13420;BME280;6781;58.440;15.470;2023-09-19T04:33:07;102506.19;;;15.97;100.00
13420;BME280;6781;58.440;15.470;2023-09-19T04:35:34;102501.56;;;16.01;100.00
13420;BME280;6781;58.440;15.470;2023-09-19T04:38:03;102539.13;;;16.12;100.00
13420;BME280;6781;58.440;15.470;2023-09-19T04:40:32;102525.53;;;16.07;100.00
13420;BME280;6781;58.440;15.470;2023-09-19T04:42:59;102530.47;;;15.99;100.00
13420;BME280;6781;58.440;15.470;2023-09-19T04:45:27;102525.16;;;16.24;100.00
13420;BME280;6781;58.440;15.470;2023-09-19T04:47:55;102484.59;;;16.06;100.00
13420;BME280;6781;58.440;15.470;2023-09-19T04:50:22;102481.13;;;16.06;100.00
13420;BME280;6781;58.440;15.470;2023-09-19T04:52:52;102512.34;;;16.33;100.00
13420;BME280;6781;58.440;15.470;2023-09-19T04:55:20;102436.47;;;15.96;100.00
13420;BME280;6781;58.440;15.470;2023-09-19T04:57:48;102439.28;;;15.93;100.00
13420;BME280;6781;58.440;15.470;2023-09-19T05:00:17;102483.72;;;16.18;100.00
13420;BME280;6781;58.440;15.470;2023-09-19T05:02:49;102462.19;;;16.02;100.00
13420;BME280;6781;58.440;15.470;2023-09-19T05:05:16;102493.50;;;16.27;100.00
13420;BME280;6781;58.440;15.470;2023-09-19T05:07:44;102463.97;;;16.25;100.00
13420;BME280;6781;58.440;15.470;2023-09-19T05:10:19;102463.53;;;16.32;100.00
13420;BME280;6781;58.440;15.470;2023-09-19T05:12:53;102447.28;;;16.15;100.00
13420;BME280;6781;58.440;15.470;2023-09-19T05:15:20;102408.09;;;15.90;100.00
13420;BME280;6781;58.440;15.470;2023-09-19T05:17:50;102439.19;;;16.18;100.00
13420;BME280;6781;58.440;15.470;2023-09-19T05:20:20;102413.00;;;15.94;100.00
13420;BME280;6781;58.440;15.470;2023-09-19T05:22:50;102448.94;;;16.16;100.00
13420;BME280;6781;58.440;15.470;2023-09-19T05:25:25;102486.16;;;16.33;100.00
13420;BME280;6781;58.440;15.470;2023-09-19T05:27:55;102367.06;;;15.67;100.00
13420;BME280;6781;58.440;15.470;2023-09-19T05:30:23;102472.13;;;16.34;100.00
13420;BME280;6781;58.440;15.470;2023-09-19T05:32:50;102437.28;;;16.20;100.00
13420;BME280;6781;58.440;15.470;2023-09-19T05:35:18;102404.81;;;15.99;100.00
13420;BME280;6781;58.440;15.470;2023-09-19T05:37:47;102413.91;;;16.06;100.00
13420;BME280;6781;58.440;15.470;2023-09-19T05:40:16;102465.59;;;16.39;100.00
13420;BME280;6781;58.440;15.470;2023-09-19T05:42:45;102455.91;;;16.28;100.00
13420;BME280;6781;58.440;15.470;2023-09-19T05:45:12;102411.09;;;16.20;100.00
13420;BME280;6781;58.440;15.470;2023-09-19T05:47:40;102458.63;;;16.51;100.00
13420;BME280;6781;58.440;15.470;2023-09-19T05:50:10;102428.31;;;16.36;100.00
13420;BME280;6781;58.440;15.470;2023-09-19T05:52:37;102470.22;;;16.59;100.00
13420;BME280;6781;58.440;15.470;2023-09-19T05:55:04;102493.44;;;16.64;100.00
13420;BME280;6781;58.440;15.470;2023-09-19T05:57:35;102417.78;;;16.24;100.00
13420;BME280;6781;58.440;15.470;2023-09-19T06:00:05;102354.03;;;15.78;100.00
13420;BME280;6781;58.440;15.470;2023-09-19T06:02:34;102505.44;;;16.79;100.00
13420;BME280;6781;58.440;15.470;2023-09-19T06:05:01;102509.63;;;16.82;100.00
13420;BME280;6781;58.440;15.470;2023-09-19T06:07:31;102416.28;;;16.33;100.00
13420;BME280;6781;58.440;15.470;2023-09-19T06:10:02;102495.94;;;16.89;100.00
13420;BME280;6781;58.440;15.470;2023-09-19T06:12:31;102435.50;;;16.45;100.00
13420;BME280;6781;58.440;15.470;2023-09-19T06:14:58;102431.75;;;16.60;100.00
13420;BME280;6781;58.440;15.470;2023-09-19T06:17:27;102372.66;;;16.21;100.00
13420;BME280;6781;58.440;15.470;2023-09-19T06:19:54;102290.00;;;15.71;100.00
13420;BME280;6781;58.440;15.470;2023-09-19T06:22:21;102452.41;;;16.76;100.00
13420;BME280;6781;58.440;15.470;2023-09-19T06:24:49;102447.78;;;16.79;100.00
13420;BME280;6781;58.440;15.470;2023-09-19T06:27:16;102459.72;;;16.83;100.00
13420;BME280;6781;58.440;15.470;2023-09-19T06:29:43;102447.78;;;16.79;100.00
13420;BME280;6781;58.440;15.470;2023-09-19T06:32:11;102449.94;;;16.85;100.00
13420;BME280;6781;58.440;15.470;2023-09-19T06:34:39;102342.19;;;16.20;100.00
13420;BME280;6781;58.440;15.470;2023-09-19T06:37:09;102449.13;;;16.96;100.00
13420;BME280;6781;58.440;15.470;2023-09-19T06:39:35;102457.25;;;17.04;100.00
13420;BME280;6781;58.440;15.470;2023-09-19T06:42:04;102458.44;;;17.11;100.00
13420;BME280;6781;58.440;15.470;2023-09-19T06:44:31;102471.22;;;17.16;100.00
13420;BME280;6781;58.440;15.470;2023-09-19T06:46:58;102379.75;;;16.67;100.00
13420;BME280;6781;58.440;15.470;2023-09-19T06:49:25;102374.38;;;16.68;100.00
13420;BME280;6781;58.440;15.470;2023-09-19T06:51:55;102393.59;;;16.91;100.00
13420;BME280;6781;58.440;15.470;2023-09-19T06:54:23;102448.78;;;17.34;100.00
13420;BME280;6781;58.440;15.470;2023-09-19T06:56:49;102447.00;;;17.35;100.00
13420;BME280;6781;58.440;15.470;2023-09-19T06:59:16;102437.59;;;17.32;100.00
13420;BME280;6781;58.440;15.470;2023-09-19T07:01:43;102412.56;;;17.17;100.00
13420;BME280;6781;58.440;15.470;2023-09-19T07:04:12;102361.53;;;16.87;100.00
13420;BME280;6781;58.440;15.470;2023-09-19T07:06:40;102375.84;;;17.06;100.00
13420;BME280;6781;58.440;15.470;2023-09-19T07:09:08;102349.16;;;16.89;100.00
13420;BME280;6781;58.440;15.470;2023-09-19T07:11:35;102314.13;;;16.79;100.00
13420;BME280;6781;58.440;15.470;2023-09-19T07:14:03;102189.25;;;16.11;100.00
13420;BME280;6781;58.440;15.470;2023-09-19T07:16:31;102354.03;;;17.16;100.00
13420;BME280;6781;58.440;15.470;2023-09-19T07:18:58;102372.84;;;17.33;100.00
13420;BME280;6781;58.440;15.470;2023-09-19T07:21:25;102346.28;;;17.15;100.00
13420;BME280;6781;58.440;15.470;2023-09-19T07:23:52;102303.13;;;17.08;100.00
13420;BME280;6781;58.440;15.470;2023-09-19T07:26:20;102337.34;;;17.29;100.00
13420;BME280;6781;58.440;15.470;2023-09-19T07:28:47;102300.75;;;17.16;100.00
13420;BME280;6781;58.440;15.470;2023-09-19T07:31:14;102284.75;;;17.30;100.00
13420;BME280;6781;58.440;15.470;2023-09-19T07:33:42;102320.41;;;17.65;100.00
13420;BME280;6781;58.440;15.470;2023-09-19T07:36:12;102294.91;;;17.67;100.00
13420;BME280;6781;58.440;15.470;2023-09-19T07:38:39;102174.19;;;17.03;100.00
13420;BME280;6781;58.440;15.470;2023-09-19T07:41:07;102236.97;;;17.47;100.00
13420;BME280;6781;58.440;15.470;2023-09-19T07:43:36;102261.34;;;17.70;100.00
13420;BME280;6781;58.440;15.470;2023-09-19T07:46:05;102244.34;;;17.53;100.00
13420;BME280;6781;58.440;15.470;2023-09-19T07:48:34;102225.31;;;17.40;100.00
13420;BME280;6781;58.440;15.470;2023-09-19T07:51:04;102105.53;;;16.77;100.00
13420;BME280;6781;58.440;15.470;2023-09-19T07:53:32;102179.91;;;17.08;100.00
13420;BME280;6781;58.440;15.470;2023-09-19T07:56:04;102109.22;;;16.74;100.00
13420;BME280;6781;58.440;15.470;2023-09-19T07:58:31;101982.13;;;15.93;100.00
13420;BME280;6781;58.440;15.470;2023-09-19T08:01:04;102095.16;;;16.75;100.00
13420;BME280;6781;58.440;15.470;2023-09-19T08:03:32;102092.28;;;16.78;100.00
13420;BME280;6781;58.440;15.470;2023-09-19T08:05:59;102075.03;;;16.76;100.00
13420;BME280;6781;58.440;15.470;2023-09-19T08:08:26;101989.97;;;16.37;100.00
13420;BME280;6781;58.440;15.470;2023-09-19T08:10:53;102050.16;;;16.70;100.00
13420;BME280;6781;58.440;15.470;2023-09-19T08:13:22;102034.50;;;16.80;100.00
13420;BME280;6781;58.440;15.470;2023-09-19T08:15:49;102013.88;;;16.86;100.00
13420;BME280;6781;58.440;15.470;2023-09-19T08:18:19;102011.66;;;17.03;100.00
13420;BME280;6781;58.440;15.470;2023-09-19T08:20:51;101957.94;;;16.76;100.00
13420;BME280;6781;58.440;15.470;2023-09-19T08:23:19;101972.13;;;17.15;100.00
13420;BME280;6781;58.440;15.470;2023-09-19T08:25:46;101919.88;;;17.03;100.00
13420;BME280;6781;58.440;15.470;2023-09-19T08:28:13;101833.63;;;16.69;100.00
13420;BME280;6781;58.440;15.470;2023-09-19T08:30:44;101810.22;;;16.77;100.00
13420;BME280;6781;58.440;15.470;2023-09-19T08:33:11;101842.69;;;17.36;100.00
13420;BME280;6781;58.440;15.470;2023-09-19T08:35:42;101801.28;;;17.39;100.00
13420;BME280;6781;58.440;15.470;2023-09-19T08:38:10;101769.00;;;17.29;100.00
13420;BME280;6781;58.440;15.470;2023-09-19T08:40:39;101610.03;;;16.49;100.00
13420;BME280;6781;58.440;15.470;2023-09-19T08:43:07;101642.28;;;17.00;100.00
13420;BME280;6781;58.440;15.470;2023-09-19T08:45:35;101617.16;;;17.07;100.00
13420;BME280;6781;58.440;15.470;2023-09-19T08:48:11;101547.34;;;17.06;100.00
13420;BME280;6781;58.440;15.470;2023-09-19T08:50:49;101378.44;;;16.42;100.00
13420;BME280;6781;58.440;15.470;2023-09-19T08:53:27;101483.69;;;17.33;100.00
13420;BME280;6781;58.440;15.470;2023-09-19T08:55:59;101318.75;;;16.65;100.00
13420;BME280;6781;58.440;15.470;2023-09-19T08:58:31;101342.22;;;17.31;100.00
13420;BME280;6781;58.440;15.470;2023-09-19T09:01:00;101283.91;;;17.37;100.00
13420;BME280;6781;58.440;15.470;2023-09-19T09:03:32;101208.69;;;17.20;100.00
13420;BME280;6781;58.440;15.470;2023-09-19T09:06:01;101140.53;;;17.20;100.00
13420;BME280;6781;58.440;15.470;2023-09-19T09:08:30;101108.75;;;17.23;100.00
13420;BME280;6781;58.440;15.470;2023-09-19T09:10:58;100976.19;;;16.77;100.00
13420;BME280;6781;58.440;15.470;2023-09-19T09:13:25;100902.47;;;16.54;100.00
13420;BME280;6781;58.440;15.470;2023-09-19T09:15:53;100917.22;;;16.99;100.00
13420;BME280;6781;58.440;15.470;2023-09-19T09:18:20;100877.13;;;17.06;100.00
13420;BME280;6781;58.440;15.470;2023-09-19T09:20:48;100838.47;;;17.08;100.00
13420;BME280;6781;58.440;15.470;2023-09-19T09:23:16;100790.84;;;17.13;100.00
13420;BME280;6781;58.440;15.470;2023-09-19T09:25:50;100741.03;;;17.13;100.00
13420;BME280;6781;58.440;15.470;2023-09-19T09:28:21;100671.56;;;17.09;100.00
13420;BME280;6781;58.440;15.470;2023-09-19T09:30:48;100675.19;;;17.56;100.00
13420;BME280;6781;58.440;15.470;2023-09-19T09:33:16;100615.81;;;17.64;100.00
13420;BME280;6781;58.440;15.470;2023-09-19T09:35:48;100525.34;;;17.60;100.00
13420;BME280;6781;58.440;15.470;2023-09-19T09:38:19;100279.25;;;16.54;100.00
13420;BME280;6781;58.440;15.470;2023-09-19T09:40:47;100343.09;;;17.47;100.00
13420;BME280;6781;58.440;15.470;2023-09-19T09:43:26;100243.75;;;17.52;100.00
13420;BME280;6781;58.440;15.470;2023-09-19T09:46:06;100171.03;;;17.46;100.00
13420;BME280;6781;58.440;15.470;2023-09-19T09:49:00;100110.81;;;17.53;100.00
13420;BME280;6781;58.440;15.470;2023-09-19T09:51:46;99991.66;;;17.26;100.00
13420;BME280;6781;58.440;15.470;2023-09-19T09:54:25;99993.91;;;17.73;100.00
13420;BME280;6781;58.440;15.470;2023-09-19T09:56:59;99965.25;;;17.72;100.00
13420;BME280;6781;58.440;15.470;2023-09-19T09:59:51;99885.13;;;17.69;100.00
13420;BME280;6781;58.440;15.470;2023-09-19T10:02:21;99877.97;;;18.20;100.00
13420;BME280;6781;58.440;15.470;2023-09-19T10:04:51;99740.75;;;17.63;100.00
13420;BME280;6781;58.440;15.470;2023-09-19T10:07:28;99739.88;;;17.98;100.00
13420;BME280;6781;58.440;15.470;2023-09-19T10:10:01;99649.97;;;17.62;100.00
13420;BME280;6781;58.440;15.470;2023-09-19T10:12:44;99631.13;;;17.73;100.00
13420;BME280;6781;58.440;15.470;2023-09-19T10:15:14;99599.63;;;17.17;100.00
13420;BME280;6781;58.440;15.470;2023-09-19T10:17:43;99550.09;;;16.79;100.00
13420;BME280;6781;58.440;15.470;2023-09-19T10:20:15;99588.34;;;16.95;100.00
13420;BME280;6781;58.440;15.470;2023-09-19T10:22:59;99564.81;;;17.02;100.00
13420;BME280;6781;58.440;15.470;2023-09-19T10:25:28;99534.75;;;16.76;100.00
13420;BME280;6781;58.440;15.470;2023-09-19T10:27:57;99526.78;;;16.84;100.00
13420;BME280;6781;58.440;15.470;2023-09-19T10:30:29;99516.78;;;16.95;100.00
13420;BME280;6781;58.440;15.470;2023-09-19T10:33:00;99528.06;;;17.16;100.00
13420;BME280;6781;58.440;15.470;2023-09-19T10:35:28;99493.69;;;17.05;100.00
13420;BME280;6781;58.440;15.470;2023-09-19T10:37:57;99490.56;;;17.16;100.00
13420;BME280;6781;58.440;15.470;2023-09-19T10:40:28;99435.06;;;17.06;100.00
13420;BME280;6781;58.440;15.470;2023-09-19T10:43:04;99363.16;;;16.80;100.00
13420;BME280;6781;58.440;15.470;2023-09-19T10:45:33;99399.34;;;17.33;100.00
13420;BME280;6781;58.440;15.470;2023-09-19T10:48:01;99427.69;;;17.64;100.00
13420;BME280;6781;58.440;15.470;2023-09-19T10:50:33;99389.31;;;17.49;100.00
13420;BME280;6781;58.440;15.470;2023-09-19T10:53:04;99334.78;;;17.25;100.00
13420;BME280;6781;58.440;15.470;2023-09-19T10:55:35;99346.97;;;17.52;100.00
13420;BME280;6781;58.440;15.470;2023-09-19T10:58:03;99243.59;;;17.01;100.00
13420;BME280;6781;58.440;15.470;2023-09-19T11:00:53;99352.63;;;17.56;100.00
13420;BME280;6781;58.440;15.470;2023-09-19T11:03:21;99354.97;;;17.38;100.00
13420;BME280;6781;58.440;15.470;2023-09-19T11:06:03;99371.97;;;17.48;100.00
13420;BME280;6781;58.440;15.470;2023-09-19T11:08:55;99315.31;;;17.00;100.00
13420;BME280;6781;58.440;15.470;2023-09-19T11:11:42;99379.72;;;17.22;100.00
13420;BME280;6781;58.440;15.470;2023-09-19T11:14:15;99373.81;;;17.07;100.00
13420;BME280;6781;58.440;15.470;2023-09-19T11:20:16;99299.19;;;16.34;100.00
13420;BME280;6781;58.440;15.470;2023-09-19T11:23:23;99265.84;;;15.93;100.00
13420;BME280;6781;58.440;15.470;2023-09-19T11:25:52;99149.56;;;15.40;100.00
13420;BME280;6781;58.440;15.470;2023-09-19T11:28:34;99176.72;;;15.60;100.00
13420;BME280;6781;58.440;15.470;2023-09-19T11:34:47;99203.75;;;16.30;100.00
13420;BME280;6781;58.440;15.470;2023-09-19T11:40:32;99094.63;;;16.23;100.00
13420;BME280;6781;58.440;15.470;2023-09-19T11:43:31;99108.31;;;16.73;100.00
13420;BME280;6781;58.440;15.470;2023-09-19T11:46:09;99077.84;;;16.59;100.00
13420;BME280;6781;58.440;15.470;2023-09-19T11:48:38;99052.47;;;16.53;100.00
13420;BME280;6781;58.440;15.470;2023-09-19T11:51:14;99063.75;;;16.60;100.00
13420;BME280;6781;58.440;15.470;2023-09-19T11:53:50;99041.41;;;16.57;100.00
13420;BME280;6781;58.440;15.470;2023-09-19T11:56:18;99025.69;;;16.57;100.00
13420;BME280;6781;58.440;15.470;2023-09-19T11:58:49;98940.00;;;15.92;100.00
13420;BME280;6781;58.440;15.470;2023-09-19T12:01:22;99018.66;;;16.58;100.00
13420;BME280;6781;58.440;15.470;2023-09-19T12:03:53;98996.50;;;16.54;100.00
13420;BME280;6781;58.440;15.470;2023-09-19T12:06:22;98904.63;;;16.09;100.00
13420;BME280;6781;58.440;15.470;2023-09-19T12:08:49;98968.09;;;16.51;100.00
13420;BME280;6781;58.440;15.470;2023-09-19T12:11:19;98942.53;;;16.53;100.00
13420;BME280;6781;58.440;15.470;2023-09-19T12:13:50;98861.75;;;15.90;100.00
13420;BME280;6781;58.440;15.470;2023-09-19T12:16:19;98939.91;;;16.53;100.00
13420;BME280;6781;58.440;15.470;2023-09-19T12:18:51;98969.56;;;16.73;100.00
13420;BME280;6781;58.440;15.470;2023-09-19T12:21:24;98990.72;;;16.78;100.00
13420;BME280;6781;58.440;15.470;2023-09-19T12:24:06;98795.56;;;15.57;100.00
13420;BME280;6781;58.440;15.470;2023-09-19T12:26:41;98972.78;;;16.88;100.00
13420;BME280;6781;58.440;15.470;2023-09-19T12:29:15;98786.50;;;15.73;100.00
13420;BME280;6781;58.440;15.470;2023-09-19T12:31:48;98833.63;;;16.25;100.00
13420;BME280;6781;58.440;15.470;2023-09-19T12:34:19;98950.22;;;17.01;100.00
13420;BME280;6781;58.440;15.470;2023-09-19T12:36:47;98954.25;;;16.83;100.00
13420;BME280;6781;58.440;15.470;2023-09-19T12:39:24;98925.22;;;16.52;100.00
13420;BME280;6781;58.440;15.470;2023-09-19T12:41:52;98912.34;;;16.44;100.00
13420;BME280;6781;58.440;15.470;2023-09-19T12:44:21;98979.22;;;16.92;100.00
13420;BME280;6781;58.440;15.470;2023-09-19T12:46:50;98984.06;;;16.96;100.00
13420;BME280;6781;58.440;15.470;2023-09-19T12:49:19;98972.38;;;16.91;100.00
13420;BME280;6781;58.440;15.470;2023-09-19T12:51:47;98937.09;;;16.61;100.00
13420;BME280;6781;58.440;15.470;2023-09-19T12:54:14;98969.75;;;16.78;100.00
13420;BME280;6781;58.440;15.470;2023-09-19T12:56:43;98862.81;;;16.22;100.00
13420;BME280;6781;58.440;15.470;2023-09-19T12:59:12;98900.66;;;16.33;100.00
13420;BME280;6781;58.440;15.470;2023-09-19T13:01:43;98875.88;;;16.09;100.00
13420;BME280;6781;58.440;15.470;2023-09-19T13:04:13;98998.31;;;16.60;100.00
13420;BME280;6781;58.440;15.470;2023-09-19T13:06:44;99011.75;;;16.31;100.00
13420;BME280;6781;58.440;15.470;2023-09-19T13:09:11;99012.44;;;16.05;100.00
13420;BME280;6781;58.440;15.470;2023-09-19T13:11:40;99029.09;;;15.90;100.00
13420;BME280;6781;58.440;15.470;2023-09-19T13:14:17;98971.31;;;15.10;100.00
13420;BME280;6781;58.440;15.470;2023-09-19T13:16:56;99052.63;;;15.90;100.00